Time;durP1;ratioP1;P1;durP2;ratioP2;P2;SDS_P1;SDS_P2;PMS_P1;PMS_P2;Temp;Humidity;BMP_temperature;BMP_pressure;BME280_temperature;BME280_humidity;BME280_pressure;Samples;Min_cycle;Max_cycle;Signal;HPM_P1;HPM_P2
2024/04/20 00:01:11;;;;;;;3.10;2.10;;;;;;;;;;763054;182;805514;-65
2024/04/20 00:03:37;;;;;;;3.10;1.70;;;;;;;;;;767193;182;1021382;-66
2024/04/20 00:06:03;;;;;;;6.00;1.97;;;;;;;;;;761417;184;774145;-66
2024/04/20 00:08:31;;;;;;;3.77;2.30;;;;;;;;;;763132;181;919804;-64
2024/04/20 00:10:55;;;;;;;2.83;1.70;;;;;;;;;;763005;182;907736;-65
2024/04/20 00:13:21;;;;;;;2.40;1.60;;;;;;;;;;770063;182;916214;-65
2024/04/20 00:15:46;;;;;;;2.90;2.10;;;;;;;;;;768346;182;679306;-68
2024/04/20 00:18:12;;;;;;;3.08;1.67;;;;;;;;;;766262;182;813212;-67
2024/04/20 00:20:38;;;;;;;3.37;1.90;;;;;;;;;;770373;183;871990;-67
2024/04/20 00:23:04;;;;;;;2.73;1.90;;;;;;;;;;767027;181;849752;-64
2024/04/20 00:25:31;;;;;;;3.10;1.90;;;;;;;;;;769358;182;919073;-64
2024/04/20 00:27:57;;;;;;;2.50;1.73;;;;;;;;;;772138;182;818469;-64
2024/04/20 00:30:23;;;;;;;3.27;2.00;;;;;;;;;;766754;182;920698;-63
2024/04/20 00:32:49;;;;;;;2.60;1.40;;;;;;;;;;764510;182;929635;-64
2024/04/20 00:35:18;;;;;;;2.77;1.93;;;;;;;;;;768184;182;733786;-64
2024/04/20 00:37:41;;;;;;;3.50;2.10;;;;;;;;;;772791;183;818510;-64
2024/04/20 00:40:07;;;;;;;3.30;1.90;;;;;;;;;;765088;182;788349;-64
2024/04/20 00:42:33;;;;;;;5.90;2.10;;;;;;;;;;762094;183;909564;-65
2024/04/20 00:44:59;;;;;;;3.63;2.23;;;;;;;;;;768292;183;919306;-65
2024/04/20 00:47:24;;;;;;;3.83;2.10;;;;;;;;;;765660;182;919982;-65
2024/04/20 00:49:50;;;;;;;4.00;2.37;;;;;;;;;;768274;183;919931;-65
2024/04/20 00:52:16;;;;;;;3.33;1.90;;;;;;;;;;770735;183;815064;-65
2024/04/20 00:54:42;;;;;;;2.53;1.50;;;;;;;;;;763498;183;716421;-66
2024/04/20 00:57:08;;;;;;;3.90;1.87;;;;;;;;;;767326;182;722756;-67
2024/04/20 00:59:34;;;;;;;2.47;1.35;;;;;;;;;;769714;182;917046;-65
2024/04/20 01:01:59;;;;;;;3.00;1.90;;;;;;;;;;764657;182;914800;-65
2024/04/20 01:04:25;;;;;;;3.17;1.70;;;;;;;;;;763726;183;816031;-65
2024/04/20 01:06:51;;;;;;;4.30;2.53;;;;;;;;;;765518;182;816079;-66
2024/04/20 01:09:17;;;;;;;2.60;1.63;;;;;;;;;;766290;183;920783;-64
2024/04/20 01:11:43;;;;;;;2.40;1.50;;;;;;;;;;766039;182;906416;-66
2024/04/20 01:14:10;;;;;;;2.95;2.00;;;;;;;;;;767426;180;819255;-65
2024/04/20 01:16:34;;;;;;;2.63;1.53;;;;;;;;;;772221;182;810541;-64
2024/04/20 01:19:00;;;;;;;2.73;1.93;;;;;;;;;;765470;182;906969;-65
2024/04/20 01:21:26;;;;;;;3.75;1.90;;;;;;;;;;765002;182;819040;-65
2024/04/20 01:23:52;;;;;;;2.80;1.63;;;;;;;;;;770809;183;616255;-65
2024/04/20 01:26:18;;;;;;;2.63;1.63;;;;;;;;;;766342;182;923250;-66
2024/04/20 01:28:44;;;;;;;2.63;1.50;;;;;;;;;;764338;182;831126;-64
2024/04/20 01:31:09;;;;;;;3.93;1.50;;;;;;;;;;771115;182;916473;-64
2024/04/20 01:33:36;;;;;;;2.50;1.50;;;;;;;;;;766074;181;817965;-68
2024/04/20 01:36:01;;;;;;;2.00;1.00;;;;;;;;;;767144;182;921494;-69
2024/04/20 01:38:27;;;;;;;2.40;1.20;;;;;;;;;;768912;182;666810;-68
2024/04/20 01:40:53;;;;;;;2.73;1.30;;;;;;;;;;772786;182;712202;-68
2024/04/20 01:43:19;;;;;;;2.13;1.00;;;;;;;;;;766290;181;861126;-69
2024/04/20 01:45:44;;;;;;;2.62;1.10;;;;;;;;;;767833;182;818188;-68
2024/04/20 01:48:11;;;;;;;2.33;1.10;;;;;;;;;;772286;182;657098;-68
2024/04/20 01:50:36;;;;;;;2.57;1.27;;;;;;;;;;767963;182;820413;-68
2024/04/20 01:53:03;;;;;;;2.63;1.10;;;;;;;;;;761138;183;919272;-68
2024/04/20 01:55:28;;;;;;;2.80;1.60;;;;;;;;;;771897;182;817253;-68
2024/04/20 01:57:54;;;;;;;2.27;1.20;;;;;;;;;;764571;183;807873;-68
2024/04/20 02:00:20;;;;;;;2.30;1.20;;;;;;;;;;762246;183;918002;-67
2024/04/20 02:02:45;;;;;;;4.53;1.63;;;;;;;;;;768861;182;916668;-68
2024/04/20 02:05:11;;;;;;;2.30;1.20;;;;;;;;;;766652;182;819729;-67
2024/04/20 02:07:37;;;;;;;2.40;1.23;;;;;;;;;;767292;182;815234;-68
2024/04/20 02:10:03;;;;;;;2.53;1.37;;;;;;;;;;765201;182;916212;-67
2024/04/20 02:12:30;;;;;;;3.30;1.80;;;;;;;;;;768521;182;919994;-67
2024/04/20 02:14:55;;;;;;;2.87;1.77;;;;;;;;;;766514;182;819677;-68
2024/04/20 02:17:20;;;;;;;3.90;1.40;;;;;;;;;;765817;180;814139;-68
2024/04/20 02:19:46;;;;;;;2.53;1.33;;;;;;;;;;768856;182;900761;-67
2024/04/20 02:22:12;;;;;;;2.63;1.33;;;;;;;;;;763063;183;918447;-67
2024/04/20 02:24:38;;;;;;;2.90;1.67;;;;;;;;;;763945;183;741425;-67
2024/04/20 02:27:04;;;;;;;2.40;1.40;;;;;;;;;;767148;183;918129;-67
2024/04/20 02:29:30;;;;;;;3.60;1.50;;;;;;;;;;766113;182;920400;-67
2024/04/20 02:31:56;;;;;;;2.42;1.20;;;;;;;;;;765876;182;918384;-67
2024/04/20 02:34:21;;;;;;;5.60;1.50;;;;;;;;;;766113;182;919839;-68
2024/04/20 02:36:47;;;;;;;2.40;1.30;;;;;;;;;;763530;182;814164;-67
2024/04/20 02:39:13;;;;;;;2.30;1.30;;;;;;;;;;763249;183;846852;-63
2024/04/20 02:41:39;;;;;;;2.67;1.67;;;;;;;;;;766534;183;805746;-64
2024/04/20 02:44:05;;;;;;;3.15;1.67;;;;;;;;;;770741;182;918624;-66
2024/04/20 02:46:32;;;;;;;2.93;1.30;;;;;;;;;;768252;181;916369;-66
2024/04/20 02:48:56;;;;;;;2.73;1.50;;;;;;;;;;768830;182;817417;-67
2024/04/20 02:51:22;;;;;;;2.80;1.43;;;;;;;;;;770243;182;922096;-67
2024/04/20 02:53:48;;;;;;;2.70;1.70;;;;;;;;;;766730;182;916269;-67
2024/04/20 02:56:14;;;;;;;2.73;1.50;;;;;;;;;;765149;182;815730;-62
2024/04/20 02:58:40;;;;;;;2.45;1.30;;;;;;;;;;768962;183;860038;-62
2024/04/20 03:01:06;;;;;;;2.83;1.43;;;;;;;;;;764375;183;915646;-62
2024/04/20 03:03:31;;;;;;;2.70;1.70;;;;;;;;;;764122;182;941241;-63
2024/04/20 03:05:57;;;;;;;2.47;1.37;;;;;;;;;;766886;183;738426;-63
2024/04/20 03:08:23;;;;;;;2.50;1.40;;;;;;;;;;766821;183;888840;-63
2024/04/20 03:10:49;;;;;;;2.40;1.47;;;;;;;;;;764206;182;816268;-63
2024/04/20 03:13:15;;;;;;;2.40;1.40;;;;;;;;;;765398;182;918494;-63
2024/04/20 03:15:41;;;;;;;2.67;1.50;;;;;;;;;;772951;182;813111;-67
2024/04/20 03:18:06;;;;;;;3.20;1.90;;;;;;;;;;767530;182;873073;-68
2024/04/20 03:20:32;;;;;;;2.73;2.00;;;;;;;;;;767047;182;818201;-68
2024/04/20 03:22:58;;;;;;;3.13;1.60;;;;;;;;;;764492;183;913095;-68
2024/04/20 03:25:24;;;;;;;2.90;2.13;;;;;;;;;;767307;183;714463;-68
2024/04/20 03:27:50;;;;;;;3.80;2.23;;;;;;;;;;765927;182;918574;-68
2024/04/20 03:30:16;;;;;;;2.90;1.60;;;;;;;;;;772177;182;915541;-68
2024/04/20 03:32:42;;;;;;;3.00;2.10;;;;;;;;;;764725;183;920022;-68
2024/04/20 03:35:07;;;;;;;3.63;2.10;;;;;;;;;;760048;183;919902;-68
2024/04/20 03:37:33;;;;;;;2.73;1.90;;;;;;;;;;765023;182;1018291;-68
2024/04/20 03:39:59;;;;;;;2.97;2.10;;;;;;;;;;775556;180;800037;-68
2024/04/20 03:42:25;;;;;;;2.60;1.90;;;;;;;;;;763215;182;628440;-67
2024/04/20 03:44:51;;;;;;;2.90;1.97;;;;;;;;;;767512;182;917886;-68
2024/04/20 03:47:17;;;;;;;3.23;2.23;;;;;;;;;;771406;182;919700;-68
2024/04/20 03:49:42;;;;;;;3.00;2.00;;;;;;;;;;763214;182;711335;-68
2024/04/20 03:52:08;;;;;;;3.40;2.47;;;;;;;;;;764207;179;913187;-68
2024/04/20 03:54:34;;;;;;;3.30;1.85;;;;;;;;;;772678;182;813502;-68
2024/04/20 03:57:00;;;;;;;2.87;2.00;;;;;;;;;;765430;181;912937;-67
2024/04/20 03:59:26;;;;;;;4.28;2.10;;;;;;;;;;768032;182;869334;-68
2024/04/20 04:01:52;;;;;;;3.63;2.00;;;;;;;;;;773673;182;887284;-63
2024/04/20 04:04:17;;;;;;;2.87;1.63;;;;;;;;;;766784;182;901404;-63
2024/04/20 04:06:43;;;;;;;6.57;2.10;;;;;;;;;;768662;182;726545;-63
2024/04/20 04:09:09;;;;;;;4.07;2.00;;;;;;;;;;767107;182;819214;-63
2024/04/20 04:11:35;;;;;;;3.53;1.77;;;;;;;;;;761133;184;819855;-64
2024/04/20 04:14:01;;;;;;;2.90;1.60;;;;;;;;;;763413;182;918678;-64
2024/04/20 04:16:27;;;;;;;2.67;1.50;;;;;;;;;;768671;182;820537;-65
2024/04/20 04:18:52;;;;;;;3.10;1.80;;;;;;;;;;773018;182;618171;-64
2024/04/20 04:21:18;;;;;;;2.40;1.50;;;;;;;;;;767253;182;917183;-64
2024/04/20 04:23:44;;;;;;;2.57;1.47;;;;;;;;;;765079;182;814809;-63
2024/04/20 04:26:10;;;;;;;2.37;1.37;;;;;;;;;;768459;183;618352;-64
2024/04/20 04:28:36;;;;;;;3.10;1.60;;;;;;;;;;766636;182;646641;-64
2024/04/20 04:31:02;;;;;;;2.70;1.50;;;;;;;;;;764701;183;917529;-64
2024/04/20 04:33:28;;;;;;;3.30;1.30;;;;;;;;;;771307;182;622157;-68
2024/04/20 04:35:57;;;;;;;3.00;1.30;;;;;;;;;;764952;183;691760;-68
2024/04/20 04:38:22;;;;;;;2.70;1.80;;;;;;;;;;765224;181;946981;-68
2024/04/20 04:40:48;;;;;;;2.50;1.57;;;;;;;;;;764205;182;820043;-69
2024/04/20 04:43:13;;;;;;;2.70;1.67;;;;;;;;;;768129;182;674271;-67
2024/04/20 04:45:39;;;;;;;2.33;1.40;;;;;;;;;;764885;182;851270;-68
2024/04/20 04:48:05;;;;;;;2.20;1.20;;;;;;;;;;765066;183;715880;-68
2024/04/20 04:50:31;;;;;;;2.40;1.30;;;;;;;;;;770092;182;921116;-67
2024/04/20 04:52:58;;;;;;;2.30;1.00;;;;;;;;;;766181;182;921373;-67
2024/04/20 04:55:23;;;;;;;2.93;1.13;;;;;;;;;;767079;183;817815;-67
2024/04/20 04:57:49;;;;;;;2.57;1.00;;;;;;;;;;768956;182;839312;-68
2024/04/20 05:00:15;;;;;;;2.10;0.80;;;;;;;;;;765768;183;813165;-68
2024/04/20 05:02:41;;;;;;;1.90;0.70;;;;;;;;;;765898;182;899685;-67
2024/04/20 05:05:06;;;;;;;1.90;0.80;;;;;;;;;;765861;182;818205;-68
2024/04/20 05:07:32;;;;;;;2.37;1.10;;;;;;;;;;771263;180;914224;-67
2024/04/20 05:09:58;;;;;;;2.00;0.90;;;;;;;;;;769569;182;713057;-66
2024/04/20 05:12:24;;;;;;;1.90;0.80;;;;;;;;;;768100;182;918907;-67
2024/04/20 05:14:51;;;;;;;2.00;0.80;;;;;;;;;;773970;182;618554;-68
2024/04/20 05:17:15;;;;;;;2.30;0.97;;;;;;;;;;766313;182;811413;-67
2024/04/20 05:19:41;;;;;;;2.00;0.90;;;;;;;;;;767129;182;814892;-68
2024/04/20 05:22:07;;;;;;;2.10;0.90;;;;;;;;;;773804;183;617408;-67
2024/04/20 05:24:33;;;;;;;2.00;0.90;;;;;;;;;;764407;183;916017;-66
2024/04/20 05:26:59;;;;;;;2.00;0.80;;;;;;;;;;768735;182;917250;-68
2024/04/20 05:29:25;;;;;;;1.85;0.70;;;;;;;;;;771555;182;821607;-67
2024/04/20 05:31:50;;;;;;;2.20;0.87;;;;;;;;;;767815;182;819680;-67
2024/04/20 05:34:16;;;;;;;1.90;0.82;;;;;;;;;;768433;182;722548;-66
2024/04/20 05:36:42;;;;;;;1.90;0.80;;;;;;;;;;764265;182;915841;-68
2024/04/20 05:39:08;;;;;;;2.00;0.83;;;;;;;;;;772859;182;718150;-67
2024/04/20 05:41:34;;;;;;;1.95;0.77;;;;;;;;;;765838;183;787159;-66
2024/04/20 05:44:00;;;;;;;1.90;0.80;;;;;;;;;;768712;182;715208;-66
2024/04/20 05:46:25;;;;;;;1.97;0.87;;;;;;;;;;768448;182;919865;-67
2024/04/20 05:48:51;;;;;;;2.10;0.90;;;;;;;;;;766584;182;822299;-63
2024/04/20 05:51:17;;;;;;;1.90;0.90;;;;;;;;;;766110;182;819293;-64
2024/04/20 05:53:43;;;;;;;2.27;0.93;;;;;;;;;;771914;179;618776;-64
2024/04/20 05:56:09;;;;;;;1.93;0.90;;;;;;;;;;765533;182;918212;-64
2024/04/20 05:58:35;;;;;;;2.20;1.20;;;;;;;;;;764685;182;817448;-64
2024/04/20 06:01:01;;;;;;;2.87;1.20;;;;;;;;;;770722;182;817506;-64
2024/04/20 06:03:26;;;;;;;2.30;1.00;;;;;;;;;;763468;182;940394;-64
2024/04/20 06:05:52;;;;;;;2.10;1.10;;;;;;;;;;765968;182;813315;-65
2024/04/20 06:08:18;;;;;;;2.10;0.90;;;;;;;;;;763702;182;918506;-65
2024/04/20 06:10:50;;;;;;;2.00;0.93;;;;;;;;;;771790;182;713577;-65
2024/04/20 06:13:16;;;;;;;1.90;0.83;;;;;;;;;;766999;182;920612;-64
2024/04/20 06:15:41;;;;;;;2.20;1.10;;;;;;;;;;767756;182;712855;-68
2024/04/20 06:18:07;;;;;;;2.10;0.90;;;;;;;;;;772881;180;618457;-68
2024/04/20 06:20:37;;;;;;;2.20;0.90;;;;;;;;;;764996;182;918841;-68
2024/04/20 06:22:59;;;;;;;2.00;0.83;;;;;;;;;;765314;182;918085;-68
2024/04/20 06:25:25;;;;;;;1.87;0.77;;;;;;;;;;766462;182;920119;-69
2024/04/20 06:27:51;;;;;;;1.90;0.90;;;;;;;;;;773772;180;701924;-68
2024/04/20 06:30:16;;;;;;;2.00;0.87;;;;;;;;;;767359;182;1019325;-67
2024/04/20 06:32:42;;;;;;;2.10;0.90;;;;;;;;;;766246;182;817915;-64
2024/04/20 06:35:08;;;;;;;2.30;0.85;;;;;;;;;;772057;182;707484;-65
2024/04/20 06:37:34;;;;;;;2.00;0.90;;;;;;;;;;765427;182;917270;-65
2024/04/20 06:40:00;;;;;;;2.30;1.00;;;;;;;;;;769438;182;622977;-65
2024/04/20 06:42:26;;;;;;;2.20;1.10;;;;;;;;;;772870;182;626064;-65
2024/04/20 06:44:52;;;;;;;2.27;1.20;;;;;;;;;;768573;183;624176;-65
2024/04/20 06:47:17;;;;;;;2.90;1.40;;;;;;;;;;770547;182;618593;-65
2024/04/20 06:49:43;;;;;;;2.20;1.20;;;;;;;;;;772249;182;618853;-69
2024/04/20 06:52:09;;;;;;;2.73;1.13;;;;;;;;;;769766;182;620112;-69
2024/04/20 06:54:35;;;;;;;2.67;1.00;;;;;;;;;;769171;182;664842;-69
2024/04/20 06:57:01;;;;;;;1.90;0.83;;;;;;;;;;769906;182;636323;-70
2024/04/20 06:59:27;;;;;;;3.03;1.00;;;;;;;;;;776026;180;718860;-69
2024/04/20 07:01:52;;;;;;;2.33;1.10;;;;;;;;;;764765;183;918360;-68
2024/04/20 07:04:18;;;;;;;2.20;1.10;;;;;;;;;;765611;182;801172;-70
2024/04/20 07:06:44;;;;;;;3.90;1.10;;;;;;;;;;770006;182;919472;-70
2024/04/20 07:09:10;;;;;;;2.10;1.00;;;;;;;;;;767544;182;674369;-69
2024/04/20 07:11:36;;;;;;;1.90;0.90;;;;;;;;;;767229;182;815475;-70
2024/04/20 07:14:02;;;;;;;2.33;1.00;;;;;;;;;;770626;183;916990;-69
2024/04/20 07:16:27;;;;;;;2.30;1.17;;;;;;;;;;767004;182;716338;-69
2024/04/20 07:18:53;;;;;;;2.00;0.90;;;;;;;;;;767663;182;714261;-70
2024/04/20 07:21:19;;;;;;;2.00;0.90;;;;;;;;;;768727;182;671214;-68
2024/04/20 07:23:46;;;;;;;2.20;1.03;;;;;;;;;;763344;180;918836;-68
2024/04/20 07:26:11;;;;;;;2.10;1.00;;;;;;;;;;766108;182;809241;-69
2024/04/20 07:28:37;;;;;;;2.10;1.00;;;;;;;;;;768954;182;633585;-69
2024/04/20 07:31:02;;;;;;;2.20;0.90;;;;;;;;;;756411;184;918819;-68
2024/04/20 07:33:28;;;;;;;2.40;1.40;;;;;;;;;;765271;182;817969;-69
2024/04/20 07:35:54;;;;;;;2.40;1.00;;;;;;;;;;770620;182;625076;-69
2024/04/20 07:38:20;;;;;;;1.95;0.90;;;;;;;;;;768796;182;904752;-64
2024/04/20 07:40:46;;;;;;;2.60;1.10;;;;;;;;;;767090;182;881133;-64
2024/04/20 07:43:13;;;;;;;2.00;1.00;;;;;;;;;;766590;182;919830;-64
2024/04/20 07:45:38;;;;;;;2.67;1.30;;;;;;;;;;772778;182;777362;-64
2024/04/20 07:48:04;;;;;;;3.50;1.20;;;;;;;;;;767357;182;819343;-68
2024/04/20 07:50:30;;;;;;;2.80;1.50;;;;;;;;;;766249;182;813869;-69
2024/04/20 07:52:56;;;;;;;2.30;1.33;;;;;;;;;;771338;180;703424;-68
2024/04/20 07:55:22;;;;;;;2.27;1.40;;;;;;;;;;768780;183;714539;-68
2024/04/20 07:57:48;;;;;;;3.00;1.70;;;;;;;;;;767001;182;717450;-68
2024/04/20 08:00:14;;;;;;;2.90;1.93;;;;;;;;;;768405;182;818290;-69
2024/04/20 08:02:39;;;;;;;3.73;2.00;;;;;;;;;;771719;182;617815;-69
2024/04/20 08:05:06;;;;;;;2.93;1.60;;;;;;;;;;767020;182;814738;-68
2024/04/20 08:07:31;;;;;;;3.33;1.87;;;;;;;;;;764814;182;941753;-68
2024/04/20 08:09:57;;;;;;;3.30;1.90;;;;;;;;;;769097;182;810004;-65
2024/04/20 08:12:23;;;;;;;6.30;2.63;;;;;;;;;;766056;181;917897;-65
2024/04/20 08:14:49;;;;;;;3.87;2.03;;;;;;;;;;764943;182;815851;-64
2024/04/20 08:17:14;;;;;;;3.53;2.00;;;;;;;;;;773154;182;627254;-65
2024/04/20 08:19:40;;;;;;;3.40;2.60;;;;;;;;;;768643;182;736354;-64
2024/04/20 08:22:06;;;;;;;4.37;2.10;;;;;;;;;;767266;182;811915;-64
2024/04/20 08:24:32;;;;;;;3.27;2.60;;;;;;;;;;770018;182;918776;-65
2024/04/20 08:26:58;;;;;;;3.80;2.40;;;;;;;;;;763859;182;899002;-64
2024/04/20 08:29:24;;;;;;;3.90;1.93;;;;;;;;;;767939;182;671460;-68
2024/04/20 08:31:49;;;;;;;2.73;1.80;;;;;;;;;;769946;182;627421;-68
2024/04/20 08:34:15;;;;;;;3.17;2.07;;;;;;;;;;770068;182;921537;-68
2024/04/20 08:36:41;;;;;;;4.33;2.57;;;;;;;;;;767738;182;815942;-69
2024/04/20 08:39:07;;;;;;;4.13;2.57;;;;;;;;;;766675;182;710928;-67
2024/04/20 08:41:33;;;;;;;3.43;2.20;;;;;;;;;;771471;182;817371;-68
2024/04/20 08:44:00;;;;;;;4.30;2.40;;;;;;;;;;768326;182;795790;-67
2024/04/20 08:46:25;;;;;;;3.40;2.47;;;;;;;;;;769466;182;832468;-67
2024/04/20 08:48:51;;;;;;;3.93;2.20;;;;;;;;;;770548;182;715592;-67
2024/04/20 08:51:20;;;;;;;3.63;2.60;;;;;;;;;;768282;182;816844;-67
2024/04/20 08:53:44;;;;;;;4.90;2.93;;;;;;;;;;763840;182;838844;-68
2024/04/20 08:56:09;;;;;;;4.12;2.50;;;;;;;;;;771555;182;617847;-68
2024/04/20 08:58:35;;;;;;;4.70;3.43;;;;;;;;;;762692;182;849042;-69
2024/04/20 09:01:00;;;;;;;4.20;2.80;;;;;;;;;;765981;182;813916;-68
2024/04/20 09:03:27;;;;;;;4.10;2.83;;;;;;;;;;767814;182;704106;-68
2024/04/20 09:05:54;;;;;;;6.60;2.90;;;;;;;;;;772332;182;649411;-65
2024/04/20 09:08:20;;;;;;;6.07;2.85;;;;;;;;;;766479;182;809675;-64
2024/04/20 09:10:46;;;;;;;4.57;3.30;;;;;;;;;;768472;182;665885;-64
2024/04/20 09:13:15;;;;;;;4.27;3.17;;;;;;;;;;770249;181;620841;-65
2024/04/20 09:15:38;;;;;;;3.97;3.03;;;;;;;;;;766909;182;775849;-66
2024/04/20 09:18:04;;;;;;;3.63;2.60;;;;;;;;;;765275;179;890238;-65
2024/04/20 09:20:30;;;;;;;4.57;2.90;;;;;;;;;;772577;182;614893;-65
2024/04/20 09:23:02;;;;;;;5.57;2.97;;;;;;;;;;766226;182;716532;-63
2024/04/20 09:25:27;;;;;;;5.73;3.30;;;;;;;;;;767866;183;713737;-64
2024/04/20 09:27:53;;;;;;;3.83;2.93;;;;;;;;;;769008;182;697763;-64
2024/04/20 09:30:19;;;;;;;2.80;2.00;;;;;;;;;;768288;182;904020;-63
2024/04/20 09:32:46;;;;;;;3.70;2.73;;;;;;;;;;765606;182;887296;-59
2024/04/20 09:35:11;;;;;;;6.65;3.55;;;;;;;;;;764819;182;783306;-60
2024/04/20 09:37:37;;;;;;;3.83;2.90;;;;;;;;;;771163;182;815170;-64
2024/04/20 09:40:03;;;;;;;5.00;2.80;;;;;;;;;;768284;182;781401;-65
2024/04/20 09:42:29;;;;;;;5.33;2.60;;;;;;;;;;763678;182;921394;-63
2024/04/20 09:44:55;;;;;;;3.95;2.70;;;;;;;;;;770978;182;814587;-64
2024/04/20 09:47:21;;;;;;;5.00;3.27;;;;;;;;;;763293;182;917761;-64
2024/04/20 09:49:47;;;;;;;4.00;2.63;;;;;;;;;;767144;183;783010;-63
2024/04/20 09:52:14;;;;;;;4.43;2.50;;;;;;;;;;767656;179;629091;-63
2024/04/20 09:54:39;;;;;;;5.20;2.73;;;;;;;;;;773867;181;632427;-64
2024/04/20 09:57:07;;;;;;;5.57;2.67;;;;;;;;;;769209;182;667797;-64
2024/04/20 09:59:31;;;;;;;3.20;2.10;;;;;;;;;;771275;182;632768;-66
2024/04/20 10:01:57;;;;;;;4.43;2.37;;;;;;;;;;770803;182;907974;-64
2024/04/20 10:04:23;;;;;;;3.30;2.40;;;;;;;;;;769984;182;717424;-63
2024/04/20 10:06:49;;;;;;;4.50;2.97;;;;;;;;;;764973;182;902610;-64
2024/04/20 10:09:15;;;;;;;4.33;2.43;;;;;;;;;;770878;182;716115;-64
2024/04/20 10:11:40;;;;;;;3.60;2.00;;;;;;;;;;766535;182;928348;-63
2024/04/20 10:14:06;;;;;;;4.03;2.53;;;;;;;;;;765615;182;812726;-63
2024/04/20 10:16:32;;;;;;;4.10;2.67;;;;;;;;;;769218;183;623363;-65
2024/04/20 10:18:58;;;;;;;6.43;4.33;;;;;;;;;;764573;182;918483;-64
2024/04/20 10:21:24;;;;;;;3.43;2.30;;;;;;;;;;768390;182;813356;-64
2024/04/20 10:23:50;;;;;;;3.57;2.50;;;;;;;;;;767424;183;817714;-64
2024/04/20 10:26:21;;;;;;;3.97;2.17;;;;;;;;;;772260;182;817057;-66
2024/04/20 10:28:47;;;;;;;3.47;2.63;;;;;;;;;;767569;182;818124;-63
2024/04/20 10:31:13;;;;;;;4.78;3.37;;;;;;;;;;769080;182;615937;-64
2024/04/20 10:33:41;;;;;;;5.60;2.90;;;;;;;;;;770196;182;651601;-64
2024/04/20 10:36:11;;;;;;;4.20;2.80;;;;;;;;;;765892;182;816846;-63
2024/04/20 10:38:32;;;;;;;6.57;2.83;;;;;;;;;;766481;183;716575;-64
2024/04/20 10:41:13;;;;;;;5.13;2.40;;;;;;;;;;768229;182;621943;-65
2024/04/20 10:43:39;;;;;;;4.40;2.67;;;;;;;;;;769148;182;627731;-64
2024/04/20 10:46:05;;;;;;;6.40;2.60;;;;;;;;;;772175;180;617696;-64
2024/04/20 10:48:32;;;;;;;4.77;3.00;;;;;;;;;;766190;182;617830;-65
2024/04/20 10:50:58;;;;;;;3.23;2.00;;;;;;;;;;769334;182;630910;-65
2024/04/20 10:53:26;;;;;;;5.80;3.07;;;;;;;;;;771941;182;631040;-64
2024/04/20 10:55:54;;;;;;;5.13;2.47;;;;;;;;;;763972;183;910549;-65
2024/04/20 10:58:19;;;;;;;4.73;2.30;;;;;;;;;;768807;183;632154;-64
2024/04/20 11:00:45;;;;;;;3.47;2.40;;;;;;;;;;770165;182;809114;-65
2024/04/20 11:03:13;;;;;;;4.83;2.70;;;;;;;;;;766582;182;918757;-64
2024/04/20 11:05:37;;;;;;;3.10;2.27;;;;;;;;;;768374;180;845846;-66
2024/04/20 11:08:04;;;;;;;5.13;2.20;;;;;;;;;;772008;182;623544;-64
2024/04/20 11:10:29;;;;;;;3.33;2.00;;;;;;;;;;770362;182;949987;-64
2024/04/20 11:13:01;;;;;;;3.97;2.07;;;;;;;;;;770904;182;643465;-65
2024/04/20 11:15:26;;;;;;;5.37;2.30;;;;;;;;;;767371;182;768958;-64
2024/04/20 11:17:52;;;;;;;4.30;2.20;;;;;;;;;;771086;179;715399;-65
2024/04/20 11:20:18;;;;;;;4.37;2.03;;;;;;;;;;766370;182;919904;-65
2024/04/20 11:22:44;;;;;;;4.90;2.40;;;;;;;;;;767122;183;712661;-65
2024/04/20 11:25:10;;;;;;;3.70;2.27;;;;;;;;;;766421;182;912117;-67
2024/04/20 11:27:36;;;;;;;3.70;1.93;;;;;;;;;;758420;183;616688;-65
2024/04/20 11:30:02;;;;;;;4.87;2.43;;;;;;;;;;750938;187;619270;-65
2024/04/20 11:32:27;;;;;;;3.07;2.07;;;;;;;;;;750579;185;829549;-65
2024/04/20 11:34:53;;;;;;;4.37;1.80;;;;;;;;;;768678;183;815362;-67
2024/04/20 11:37:20;;;;;;;4.23;2.37;;;;;;;;;;768086;182;741861;-67
2024/04/20 11:39:45;;;;;;;3.47;2.30;;;;;;;;;;766049;182;920923;-68
2024/04/20 11:42:11;;;;;;;4.20;2.63;;;;;;;;;;770786;182;788679;-68
2024/04/20 11:44:37;;;;;;;4.00;2.20;;;;;;;;;;765976;182;920000;-68
2024/04/20 11:47:03;;;;;;;3.30;2.10;;;;;;;;;;768259;182;640053;-68
2024/04/20 11:49:28;;;;;;;4.03;2.60;;;;;;;;;;771541;182;607346;-67
2024/04/20 11:54:30;;;;;;;3.33;2.50;;;;;;;;;;767974;182;699749;-68
2024/04/20 11:56:56;;;;;;;7.78;3.12;;;;;;;;;;766239;182;715853;-66
2024/04/20 11:59:24;;;;;;;3.50;2.20;;;;;;;;;;772749;182;616210;-67
2024/04/20 12:01:47;;;;;;;5.10;2.50;;;;;;;;;;766105;182;790226;-67
2024/04/20 12:04:14;;;;;;;3.37;2.57;;;;;;;;;;765207;182;894108;-67
2024/04/20 12:06:39;;;;;;;6.20;2.53;;;;;;;;;;768218;182;917059;-67
2024/04/20 12:09:05;;;;;;;3.73;2.10;;;;;;;;;;764311;182;752335;-68
2024/04/20 12:11:31;;;;;;;3.30;2.20;;;;;;;;;;766342;182;714091;-66
2024/04/20 12:13:57;;;;;;;3.17;2.27;;;;;;;;;;765415;182;791355;-66
2024/04/20 12:16:23;;;;;;;5.10;2.53;;;;;;;;;;765123;182;918616;-66
2024/04/20 12:18:48;;;;;;;3.40;2.43;;;;;;;;;;765172;181;803664;-65
2024/04/20 12:21:16;;;;;;;3.70;2.40;;;;;;;;;;767286;182;818600;-66
2024/04/20 12:23:40;;;;;;;3.37;2.30;;;;;;;;;;769986;182;912323;-66
2024/04/20 12:26:07;;;;;;;3.43;2.30;;;;;;;;;;766200;182;813389;-66
2024/04/20 12:28:32;;;;;;;4.70;2.30;;;;;;;;;;769383;182;613790;-65
2024/04/20 12:30:59;;;;;;;4.93;3.17;;;;;;;;;;771500;182;918620;-65
2024/04/20 12:33:24;;;;;;;2.83;1.80;;;;;;;;;;767771;182;701374;-66
2024/04/20 12:35:49;;;;;;;3.77;2.53;;;;;;;;;;763717;182;919035;-65
2024/04/20 12:38:15;;;;;;;3.00;1.80;;;;;;;;;;771123;182;802947;-66
2024/04/20 12:40:41;;;;;;;4.20;2.30;;;;;;;;;;765853;182;819409;-66
2024/04/20 12:43:07;;;;;;;5.40;3.15;;;;;;;;;;767348;182;822558;-65
2024/04/20 12:45:33;;;;;;;3.30;2.00;;;;;;;;;;766090;182;913721;-65
2024/04/20 12:47:59;;;;;;;5.13;2.40;;;;;;;;;;766937;183;808711;-66
2024/04/20 12:50:24;;;;;;;3.70;2.87;;;;;;;;;;768007;182;817599;-67
2024/04/20 12:52:50;;;;;;;4.07;2.30;;;;;;;;;;765478;182;816345;-68
2024/04/20 12:55:17;;;;;;;4.70;2.20;;;;;;;;;;771293;182;705607;-68
2024/04/20 12:57:42;;;;;;;3.07;2.33;;;;;;;;;;763884;183;821120;-67
2024/04/20 13:00:09;;;;;;;3.03;2.10;;;;;;;;;;766154;182;817964;-67
2024/04/20 13:02:34;;;;;;;5.67;2.47;;;;;;;;;;768031;182;916689;-67
2024/04/20 13:05:00;;;;;;;5.23;2.67;;;;;;;;;;766232;182;919132;-67
2024/04/20 13:07:25;;;;;;;3.37;2.07;;;;;;;;;;765472;182;806160;-68
2024/04/20 13:09:56;;;;;;;5.63;5.10;;;;;;;;;;767800;182;822153;-67
2024/04/20 13:12:17;;;;;;;4.40;3.00;;;;;;;;;;763342;182;814191;-67
2024/04/20 13:14:43;;;;;;;4.00;2.90;;;;;;;;;;763409;182;913592;-67
2024/04/20 13:17:09;;;;;;;4.83;2.60;;;;;;;;;;766348;182;714556;-68
2024/04/20 13:19:35;;;;;;;5.23;2.80;;;;;;;;;;757760;183;668912;-65
2024/04/20 13:22:01;;;;;;;4.90;2.60;;;;;;;;;;762836;183;843061;-65
2024/04/20 13:24:26;;;;;;;4.00;2.60;;;;;;;;;;766184;182;837105;-65
2024/04/20 13:26:52;;;;;;;4.40;2.67;;;;;;;;;;769539;182;786742;-64
2024/04/20 13:29:18;;;;;;;3.20;2.57;;;;;;;;;;767105;180;919994;-64
2024/04/20 13:31:44;;;;;;;5.80;2.30;;;;;;;;;;770819;182;630839;-64
2024/04/20 13:34:10;;;;;;;3.77;2.60;;;;;;;;;;772285;182;815266;-64
2024/04/20 13:36:36;;;;;;;6.57;2.17;;;;;;;;;;769635;182;650457;-64
2024/04/20 13:39:01;;;;;;;4.78;2.40;;;;;;;;;;770060;182;630599;-64
2024/04/20 13:41:27;;;;;;;5.40;2.80;;;;;;;;;;770881;182;710346;-63
2024/04/20 13:43:55;;;;;;;4.60;2.33;;;;;;;;;;765592;180;819191;-64
2024/04/20 13:46:20;;;;;;;3.10;2.00;;;;;;;;;;767438;182;811718;-63
2024/04/20 13:48:45;;;;;;;4.83;2.27;;;;;;;;;;767613;182;811512;-64
2024/04/20 13:51:11;;;;;;;2.73;1.60;;;;;;;;;;756489;183;898726;-63
2024/04/20 13:53:36;;;;;;;3.43;2.00;;;;;;;;;;762351;183;713258;-63
2024/04/20 13:56:02;;;;;;;4.67;2.27;;;;;;;;;;768127;182;632782;-64
2024/04/20 14:04:56;;;;;;;4.17;2.43;;;;;;;;;;786870;170;813973;-65
2024/04/20 14:07:20;;;;;;;8.53;2.50;;;;;;;;;;765456;181;710243;-66
2024/04/20 14:09:48;;;;;;;3.30;1.80;;;;;;;;;;761050;182;814834;-65
2024/04/20 14:12:12;;;;;;;4.30;2.60;;;;;;;;;;758174;182;683836;-67
2024/04/20 14:14:38;;;;;;;3.80;2.33;;;;;;;;;;766344;183;626672;-66
2024/04/20 14:17:04;;;;;;;6.10;3.10;;;;;;;;;;763459;183;721271;-65
2024/04/20 14:19:30;;;;;;;7.37;3.37;;;;;;;;;;760813;183;815648;-68
2024/04/20 14:21:56;;;;;;;4.93;2.67;;;;;;;;;;768134;183;613505;-68
2024/04/20 14:24:21;;;;;;;4.70;2.70;;;;;;;;;;763754;183;635288;-70
2024/04/20 14:26:47;;;;;;;4.47;2.47;;;;;;;;;;764962;180;632938;-72
2024/04/20 14:29:13;;;;;;;8.60;3.57;;;;;;;;;;771608;180;616050;-71
2024/04/20 14:31:39;;;;;;;5.63;3.03;;;;;;;;;;761825;183;917674;-71